Time,TemperatureF,DewpointF,PressureIn,WindDirection,WindDirectionDegrees,WindSpeedMPH,WindSpeedGustMPH,Humidity,HourlyPrecipIn,Conditions,Clouds,dailyrainin,SoftwareType,DateUTC
2013-01-28 00:00:00,41.6,30.2,30.36,North,0,0.0,0.0,64,0.00,,,0.00,WUHU216HW,2013-01-28 05:00:00,
2013-01-28 00:02:00,41.6,30.2,30.36,North,0,0.0,0.0,64,0.00,,,0.00,WUHU216HW,2013-01-28 05:02:00,
2013-01-28 00:07:00,41.6,30.2,30.37,North,0,0.0,0.0,64,0.00,,,0.00,WUHU216HW,2013-01-28 05:07:00,
2013-01-28 00:12:00,41.6,30.2,30.36,North,0,0.0,0.0,64,0.00,,,0.00,WUHU216HW,2013-01-28 05:12:00,
2013-01-28 00:17:00,41.4,30.2,30.36,North,0,0.0,0.0,64,0.00,,,0.00,WUHU216HW,2013-01-28 05:17:00,
2013-01-28 00:22:00,41.4,30.2,30.36,North,0,0.0,0.0,64,0.00,,,0.00,WUHU216HW,2013-01-28 05:22:00,
2013-01-28 00:27:00,41.4,30.2,30.36,North,0,0.0,0.0,64,0.00,,,0.00,WUHU216HW,2013-01-28 05:27:00,
2013-01-28 00:32:00,41.4,30.2,30.36,North,0,0.0,0.0,64,0.00,,,0.00,WUHU216HW,2013-01-28 05:32:00,
2013-01-28 00:37:00,41.4,30.2,30.36,North,0,0.0,0.0,64,0.00,,,0.00,WUHU216HW,2013-01-28 05:37:00,
2013-01-28 00:42:00,41.4,30.5,30.35,North,0,0.0,0.0,65,0.00,,,0.00,WUHU216HW,2013-01-28 05:42:00,
2013-01-28 00:47:00,41.4,30.5,30.34,North,0,0.0,0.0,65,0.00,,,0.00,WUHU216HW,2013-01-28 05:47:00,
2013-01-28 00:52:00,41.2,30.3,30.34,North,0,0.0,0.0,65,0.00,,,0.00,WUHU216HW,2013-01-28 05:52:00,
2013-01-28 00:57:00,41.2,30.3,30.34,North,0,0.0,0.0,65,0.00,,,0.00,WUHU216HW,2013-01-28 05:57:00,
2013-01-28 01:02:00,41.0,30.2,30.35,North,0,0.0,0.0,65,0.00,,,0.00,WUHU216HW,2013-01-28 06:02:00,
2013-01-28 01:08:00,40.9,30.3,30.35,North,0,0.0,0.0,66,0.00,,,0.00,WUHU216HW,2013-01-28 06:08:00,
2013-01-28 01:13:00,40.9,30.3,30.34,North,0,0.0,0.0,66,0.00,,,0.00,WUHU216HW,2013-01-28 06:13:00,
2013-01-28 01:18:00,40.9,30.7,30.34,North,0,0.0,0.0,67,0.00,,,0.00,WUHU216HW,2013-01-28 06:18:00,
2013-01-28 01:23:00,40.9,30.7,30.34,North,0,0.0,0.0,67,0.00,,,0.00,WUHU216HW,2013-01-28 06:23:00,
2013-01-28 01:28:00,40.9,30.7,30.34,North,0,0.0,0.0,67,0.00,,,0.00,WUHU216HW,2013-01-28 06:28:00,
2013-01-28 01:33:00,40.7,30.5,30.35,North,0,0.0,0.0,67,0.00,,,0.00,WUHU216HW,2013-01-28 06:33:00,
2013-01-28 01:38:00,40.7,30.5,30.35,North,0,0.0,0.0,67,0.00,,,0.00,WUHU216HW,2013-01-28 06:38:00,
2013-01-28 01:43:00,40.7,30.5,30.35,North,0,0.0,0.0,67,0.00,,,0.00,WUHU216HW,2013-01-28 06:43:00,
2013-01-28 01:48:00,40.7,30.5,30.35,North,0,0.0,0.0,67,0.00,,,0.00,WUHU216HW,2013-01-28 06:48:00,
2013-01-28 01:53:00,40.3,30.6,30.35,North,0,0.0,0.0,68,0.00,,,0.00,WUHU216HW,2013-01-28 06:53:00,
2013-01-28 01:58:00,40.3,31.0,30.35,North,0,0.0,0.0,69,0.00,,,0.00,WUHU216HW,2013-01-28 06:58:00,
2013-01-28 02:03:00,40.3,31.0,30.36,North,0,0.0,0.0,69,0.00,,,0.00,WUHU216HW,2013-01-28 07:03:00,
2013-01-28 02:08:00,40.1,31.1,30.35,North,0,0.0,0.0,70,0.00,,,0.00,WUHU216HW,2013-01-28 07:08:00,
2013-01-28 02:13:00,40.1,31.5,30.35,North,0,0.0,0.0,71,0.00,,,0.00,WUHU216HW,2013-01-28 07:13:00,
2013-01-28 02:18:00,40.1,31.5,30.36,North,0,0.0,0.0,71,0.00,,,0.00,WUHU216HW,2013-01-28 07:18:00,
2013-01-28 02:24:00,40.1,31.5,30.37,North,0,0.0,0.0,71,0.00,,,0.00,WUHU216HW,2013-01-28 07:24:00,
2013-01-28 02:29:00,40.1,31.5,30.36,North,0,0.0,0.0,71,0.00,,,0.00,WUHU216HW,2013-01-28 07:29:00,
2013-01-28 02:34:00,40.0,31.6,30.35,North,0,0.0,0.0,72,0.00,,,0.00,WUHU216HW,2013-01-28 07:34:00,
2013-01-28 02:39:00,40.0,31.6,30.35,North,0,0.0,0.0,72,0.00,,,0.00,WUHU216HW,2013-01-28 07:39:00,
2013-01-28 02:44:00,40.0,32.0,30.35,North,0,0.0,0.0,73,0.00,,,0.00,WUHU216HW,2013-01-28 07:44:00,
2013-01-28 02:49:00,40.0,32.0,30.35,North,0,0.0,0.0,73,0.00,,,0.00,WUHU216HW,2013-01-28 07:49:00,
2013-01-28 02:54:00,40.0,32.0,30.34,North,0,0.0,0.0,73,0.00,,,0.00,WUHU216HW,2013-01-28 07:54:00,
2013-01-28 02:59:00,40.0,32.0,30.34,North,0,0.0,0.0,73,0.00,,,0.00,WUHU216HW,2013-01-28 07:59:00,
2013-01-28 03:04:00,39.8,31.8,30.34,North,0,0.0,0.0,73,0.00,,,0.00,WUHU216HW,2013-01-28 08:04:00,
2013-01-28 03:09:00,39.8,32.1,30.34,North,0,0.0,0.0,74,0.00,,,0.00,WUHU216HW,2013-01-28 08:09:00,
2013-01-28 03:14:00,39.8,32.1,30.34,North,0,0.0,0.0,74,0.00,,,0.00,WUHU216HW,2013-01-28 08:14:00,
2013-01-28 03:19:00,39.6,32.0,30.34,North,0,0.0,0.0,74,0.00,,,0.00,WUHU216HW,2013-01-28 08:19:00,
2013-01-28 03:24:00,39.6,32.0,30.34,North,0,0.0,0.0,74,0.00,,,0.00,WUHU216HW,2013-01-28 08:24:00,
2013-01-28 03:29:00,39.6,32.0,30.34,North,0,0.0,0.0,74,0.00,,,0.00,WUHU216HW,2013-01-28 08:29:00,
2013-01-28 03:34:00,39.4,31.8,30.35,North,0,0.0,0.0,74,0.00,,,0.00,WUHU216HW,2013-01-28 08:34:00,
2013-01-28 03:39:00,39.2,31.6,30.35,North,0,0.0,0.0,74,0.00,,,0.00,WUHU216HW,2013-01-28 08:39:00,
2013-01-28 03:44:00,39.1,31.4,30.34,North,0,0.0,0.0,74,0.00,,,0.00,WUHU216HW,2013-01-28 08:44:00,
2013-01-28 03:49:00,39.1,31.8,30.34,North,0,0.0,0.0,75,0.00,,,0.00,WUHU216HW,2013-01-28 08:49:00,
2013-01-28 03:54:00,38.9,31.6,30.34,North,0,0.0,0.0,75,0.00,,,0.00,WUHU216HW,2013-01-28 08:54:00,
2013-01-28 03:59:00,38.9,31.6,30.33,North,0,0.0,0.0,75,0.00,,,0.00,WUHU216HW,2013-01-28 08:59:00,
2013-01-28 04:04:00,38.9,31.6,30.34,North,0,0.0,0.0,75,0.00,,,0.00,WUHU216HW,2013-01-28 09:04:00,
2013-01-28 04:10:00,38.5,31.2,30.33,North,0,0.0,0.0,75,0.00,,,0.00,WUHU216HW,2013-01-28 09:10:00,
2013-01-28 04:15:00,38.5,31.2,30.33,North,0,0.0,0.0,75,0.00,,,0.00,WUHU216HW,2013-01-28 09:15:00,
2013-01-28 04:20:00,38.2,31.0,30.33,North,0,0.0,0.0,75,0.00,,,0.00,WUHU216HW,2013-01-28 09:20:00,
2013-01-28 04:25:00,38.0,31.1,30.34,North,0,0.0,0.0,76,0.00,,,0.00,WUHU216HW,2013-01-28 09:25:00,
2013-01-28 04:30:00,37.8,30.9,30.34,North,0,0.0,0.0,76,0.00,,,0.00,WUHU216HW,2013-01-28 09:30:00,
2013-01-28 04:35:00,37.8,30.9,30.34,North,0,0.0,0.0,76,0.00,,,0.00,WUHU216HW,2013-01-28 09:35:00,
2013-01-28 04:40:00,37.8,30.9,30.34,North,0,0.0,0.0,76,0.00,,,0.00,WUHU216HW,2013-01-28 09:40:00,
2013-01-28 04:45:00,37.8,30.9,30.34,North,0,0.0,0.0,76,0.00,,,0.00,WUHU216HW,2013-01-28 09:45:00,
2013-01-28 04:50:00,37.8,30.9,30.34,North,0,0.0,0.0,76,0.00,,,0.00,WUHU216HW,2013-01-28 09:50:00,
2013-01-28 04:55:00,37.8,31.2,30.33,North,0,0.0,0.0,77,0.00,,,0.00,WUHU216HW,2013-01-28 09:55:00,
2013-01-28 05:00:00,37.8,31.2,30.33,North,0,0.0,0.0,77,0.00,,,0.00,WUHU216HW,2013-01-28 10:00:00,
2013-01-28 05:05:00,37.8,31.2,30.33,North,0,0.0,0.0,77,0.00,,,0.00,WUHU216HW,2013-01-28 10:05:00,
2013-01-28 05:10:00,37.8,31.2,30.33,North,0,0.0,0.0,77,0.00,,,0.00,WUHU216HW,2013-01-28 10:10:00,
2013-01-28 05:15:00,37.6,30.8,30.33,North,0,0.0,0.0,76,0.00,,,0.00,WUHU216HW,2013-01-28 10:15:00,
2013-01-28 05:20:00,37.6,30.8,30.33,North,0,0.0,0.0,76,0.00,,,0.00,WUHU216HW,2013-01-28 10:20:00,
2013-01-28 05:25:00,37.6,30.8,30.33,North,0,0.0,0.0,76,0.00,,,0.00,WUHU216HW,2013-01-28 10:25:00,
2013-01-28 05:30:00,37.6,30.8,30.33,North,0,0.0,0.0,76,0.00,,,0.00,WUHU216HW,2013-01-28 10:30:00,
2013-01-28 05:35:00,37.6,30.8,30.34,North,0,0.0,0.0,76,0.00,,,0.00,WUHU216HW,2013-01-28 10:35:00,
2013-01-28 05:40:00,37.6,30.8,30.33,North,0,0.0,0.0,76,0.00,,,0.00,WUHU216HW,2013-01-28 10:40:00,
2013-01-28 05:45:00,37.4,30.6,30.33,North,0,0.0,0.0,76,0.00,,,0.00,WUHU216HW,2013-01-28 10:45:00,
2013-01-28 05:50:00,37.3,30.4,30.33,North,0,0.0,0.0,76,0.00,,,0.00,WUHU216HW,2013-01-28 10:50:00,
2013-01-28 05:55:00,37.1,30.3,30.33,North,0,0.0,0.0,76,0.00,,,0.00,WUHU216HW,2013-01-28 10:55:00,
2013-01-28 06:00:00,37.1,30.5,30.33,North,0,0.0,0.0,77,0.00,,,0.00,WUHU216HW,2013-01-28 11:00:00,
2013-01-28 06:06:00,37.1,30.5,30.33,North,0,0.0,0.0,77,0.00,,,0.00,WUHU216HW,2013-01-28 11:06:00,
2013-01-28 06:11:00,37.1,30.5,30.33,North,0,0.0,0.0,77,0.00,,,0.00,WUHU216HW,2013-01-28 11:11:00,
2013-01-28 06:16:00,37.3,30.7,30.33,North,0,0.0,0.0,77,0.00,,,0.00,WUHU216HW,2013-01-28 11:16:00,
2013-01-28 06:21:00,37.3,31.1,30.34,North,0,0.0,0.0,78,0.00,,,0.00,WUHU216HW,2013-01-28 11:21:00,
2013-01-28 06:26:00,37.3,31.1,30.34,North,0,0.0,0.0,78,0.00,,,0.00,WUHU216HW,2013-01-28 11:26:00,
2013-01-28 06:31:00,37.4,31.2,30.34,North,0,0.0,0.0,78,0.00,,,0.00,WUHU216HW,2013-01-28 11:31:00,
2013-01-28 06:36:00,37.4,31.2,30.34,North,0,0.0,0.0,78,0.00,,,0.00,WUHU216HW,2013-01-28 11:36:00,
2013-01-28 06:41:00,37.4,31.2,30.35,North,0,0.0,0.0,78,0.00,,,0.00,WUHU216HW,2013-01-28 11:41:00,
2013-01-28 06:46:00,37.4,30.9,30.35,North,0,0.0,0.0,77,0.00,,,0.00,WUHU216HW,2013-01-28 11:46:00,
2013-01-28 06:51:00,37.4,31.2,30.36,North,0,0.0,0.0,78,0.00,,,0.00,WUHU216HW,2013-01-28 11:51:00,
2013-01-28 06:56:00,37.4,31.2,30.35,North,0,0.0,0.0,78,0.00,,,0.00,WUHU216HW,2013-01-28 11:56:00,
2013-01-28 07:01:00,37.6,31.4,30.35,North,0,0.0,0.0,78,0.00,,,0.00,WUHU216HW,2013-01-28 12:01:00,
2013-01-28 07:06:00,37.8,31.6,30.35,North,0,0.0,0.0,78,0.00,,,0.00,WUHU216HW,2013-01-28 12:06:00,
2013-01-28 07:11:00,37.8,31.6,30.35,North,0,0.0,0.0,78,0.00,,,0.00,WUHU216HW,2013-01-28 12:11:00,
2013-01-28 07:16:00,38.0,31.8,30.35,North,0,0.0,0.0,78,0.00,,,0.00,WUHU216HW,2013-01-28 12:16:00,
2013-01-28 07:21:00,38.0,31.8,30.35,North,0,0.0,0.0,78,0.00,,,0.00,WUHU216HW,2013-01-28 12:21:00,
2013-01-28 07:26:00,38.2,32.0,30.35,North,0,0.0,0.0,78,0.00,,,0.00,WUHU216HW,2013-01-28 12:26:00,
2013-01-28 07:31:00,38.3,32.1,30.35,North,0,0.0,0.0,78,0.00,,,0.00,WUHU216HW,2013-01-28 12:31:00,
2013-01-28 07:36:00,38.2,32.0,30.35,North,0,0.0,0.0,78,0.00,,,0.00,WUHU216HW,2013-01-28 12:36:00,
2013-01-28 07:41:00,38.2,31.6,30.35,North,0,0.0,0.0,77,0.00,,,0.00,WUHU216HW,2013-01-28 12:41:00,
2013-01-28 07:46:00,38.2,31.6,30.35,North,0,0.0,0.0,77,0.00,,,0.00,WUHU216HW,2013-01-28 12:46:00,
2013-01-28 07:51:00,38.3,32.1,30.35,North,0,0.0,0.0,78,0.00,,,0.00,WUHU216HW,2013-01-28 12:51:00,
2013-01-28 07:56:00,38.3,31.8,30.35,North,0,0.0,0.0,77,0.00,,,0.00,WUHU216HW,2013-01-28 12:56:00,
2013-01-28 08:01:00,38.5,32.3,30.35,North,0,0.0,0.0,78,0.00,,,0.00,WUHU216HW,2013-01-28 13:01:00,
2013-01-28 08:06:00,38.5,32.3,30.33,North,0,0.0,0.0,78,0.00,,,0.00,WUHU216HW,2013-01-28 13:06:00,
2013-01-28 08:11:00,38.5,32.3,30.33,North,0,0.0,0.0,78,0.00,,,0.00,WUHU216HW,2013-01-28 13:11:00,
2013-01-28 08:16:00,38.5,32.3,30.33,North,0,0.0,0.0,78,0.00,,,0.00,WUHU216HW,2013-01-28 13:16:00,
2013-01-28 08:21:00,38.5,32.3,30.33,North,0,0.0,0.0,78,0.00,,,0.00,WUHU216HW,2013-01-28 13:21:00,
2013-01-28 08:26:00,38.5,32.0,30.34,North,0,0.0,0.0,77,0.00,,,0.00,WUHU216HW,2013-01-28 13:26:00,
2013-01-28 08:31:00,38.7,32.1,30.34,North,0,0.0,0.0,77,0.00,,,0.00,WUHU216HW,2013-01-28 13:31:00,
2013-01-28 08:36:00,38.7,32.1,30.34,North,0,0.0,0.0,77,0.00,,,0.00,WUHU216HW,2013-01-28 13:36:00,
2013-01-28 08:41:00,38.7,32.1,30.34,North,0,0.0,0.0,77,0.00,,,0.00,WUHU216HW,2013-01-28 13:41:00,
2013-01-28 08:46:00,39.1,32.5,30.34,North,0,0.0,0.0,77,0.00,,,0.00,WUHU216HW,2013-01-28 13:46:00,
2013-01-28 08:51:00,39.2,32.7,30.34,North,0,0.0,0.0,77,0.00,,,0.00,WUHU216HW,2013-01-28 13:51:00,
2013-01-28 08:56:00,39.4,32.8,30.34,North,0,0.0,0.0,77,0.00,,,0.00,WUHU216HW,2013-01-28 13:56:00,
2013-01-28 09:01:00,39.6,32.9,30.34,North,0,0.0,0.0,77,0.00,,,0.00,WUHU216HW,2013-01-28 14:01:00,
2013-01-28 09:06:00,40.0,33.3,30.34,North,0,0.0,0.0,77,0.00,,,0.00,WUHU216HW,2013-01-28 14:06:00,
2013-01-28 09:11:00,40.0,33.3,30.35,North,0,0.0,0.0,77,0.00,,,0.00,WUHU216HW,2013-01-28 14:11:00,
2013-01-28 09:16:00,40.1,33.5,30.34,North,0,0.0,0.0,77,0.00,,,0.00,WUHU216HW,2013-01-28 14:16:00,
2013-01-28 09:21:00,40.1,33.1,30.34,North,0,0.0,0.0,76,0.00,,,0.00,WUHU216HW,2013-01-28 14:21:00,
2013-01-28 09:27:00,40.3,33.3,30.34,North,0,0.0,0.0,76,0.00,,,0.00,WUHU216HW,2013-01-28 14:27:00,
2013-01-28 09:32:00,40.5,33.5,30.34,North,0,0.0,0.0,76,0.00,,,0.00,WUHU216HW,2013-01-28 14:32:00,
2013-01-28 09:37:00,40.7,33.7,30.34,North,0,0.0,0.0,76,0.00,,,0.00,WUHU216HW,2013-01-28 14:37:00,
2013-01-28 09:42:00,40.7,33.7,30.34,North,0,0.0,0.0,76,0.00,,,0.00,WUHU216HW,2013-01-28 14:42:00,
2013-01-28 09:47:00,40.9,33.9,30.34,North,0,0.0,0.0,76,0.00,,,0.00,WUHU216HW,2013-01-28 14:47:00,
2013-01-28 09:52:00,41.0,33.7,30.34,North,0,0.0,0.0,75,0.00,,,0.00,WUHU216HW,2013-01-28 14:52:00,
2013-01-28 09:57:00,41.2,33.8,30.33,North,0,0.0,0.0,75,0.00,,,0.00,WUHU216HW,2013-01-28 14:57:00,
2013-01-28 10:02:00,41.4,34.0,30.33,North,0,0.0,0.0,75,0.00,,,0.00,WUHU216HW,2013-01-28 15:02:00,
2013-01-28 10:07:00,41.4,34.0,30.33,North,0,0.0,0.0,75,0.00,,,0.00,WUHU216HW,2013-01-28 15:07:00,
2013-01-28 10:12:00,41.6,33.8,30.33,North,0,0.0,0.0,74,0.00,,,0.00,WUHU216HW,2013-01-28 15:12:00,
2013-01-28 10:17:00,41.8,34.0,30.33,North,0,0.0,0.0,74,0.00,,,0.00,WUHU216HW,2013-01-28 15:17:00,
2013-01-28 10:22:00,41.9,34.2,30.33,North,0,0.0,0.0,74,0.00,,,0.00,WUHU216HW,2013-01-28 15:22:00,
2013-01-28 10:27:00,42.1,34.4,30.33,North,0,0.0,0.0,74,0.00,,,0.00,WUHU216HW,2013-01-28 15:27:00,
2013-01-28 10:32:00,42.3,34.6,30.33,North,0,0.0,0.0,74,0.00,,,0.00,WUHU216HW,2013-01-28 15:32:00,
2013-01-28 10:37:00,42.5,34.7,30.33,North,0,0.0,0.0,74,0.00,,,0.00,WUHU216HW,2013-01-28 15:37:00,
2013-01-28 10:42:00,42.7,34.9,30.32,North,0,0.0,0.0,74,0.00,,,0.00,WUHU216HW,2013-01-28 15:42:00,
2013-01-28 10:47:00,42.8,34.8,30.32,North,0,0.0,0.0,73,0.00,,,0.00,WUHU216HW,2013-01-28 15:47:00,
2013-01-28 10:52:00,42.8,34.8,30.33,North,0,0.0,0.0,73,0.00,,,0.00,WUHU216HW,2013-01-28 15:52:00,
2013-01-28 10:57:00,42.8,34.8,30.33,North,0,0.0,0.0,73,0.00,,,0.00,WUHU216HW,2013-01-28 15:57:00,
2013-01-28 11:03:00,43.0,34.7,30.33,North,0,0.0,0.0,72,0.00,,,0.00,WUHU216HW,2013-01-28 16:03:00,
2013-01-28 11:08:00,43.2,35.2,30.33,North,0,0.0,0.0,73,0.00,,,0.00,WUHU216HW,2013-01-28 16:08:00,
2013-01-28 11:13:00,43.6,35.5,30.32,North,0,0.0,0.0,73,0.00,,,0.00,WUHU216HW,2013-01-28 16:13:00,
2013-01-28 11:18:00,43.6,35.2,30.32,North,0,0.0,0.0,72,0.00,,,0.00,WUHU216HW,2013-01-28 16:18:00,
2013-01-28 11:23:00,43.7,35.3,30.32,North,0,0.0,0.0,72,0.00,,,0.00,WUHU216HW,2013-01-28 16:23:00,
2013-01-28 11:28:00,43.9,35.8,30.32,North,0,0.0,0.0,73,0.00,,,0.00,WUHU216HW,2013-01-28 16:28:00,
2013-01-28 11:33:00,44.3,36.2,30.31,North,0,0.0,0.0,73,0.00,,,0.00,WUHU216HW,2013-01-28 16:33:00,
2013-01-28 11:38:00,44.5,36.4,30.31,North,0,0.0,0.0,73,0.00,,,0.00,WUHU216HW,2013-01-28 16:38:00,
2013-01-28 11:43:00,44.6,36.2,30.31,North,0,0.0,0.0,72,0.00,,,0.00,WUHU216HW,2013-01-28 16:43:00,
2013-01-28 11:48:00,44.6,36.2,30.31,North,0,0.0,0.0,72,0.00,,,0.00,WUHU216HW,2013-01-28 16:48:00,
2013-01-28 11:53:00,44.6,36.2,30.31,North,0,0.0,0.0,72,0.00,,,0.00,WUHU216HW,2013-01-28 16:53:00,
2013-01-28 11:58:00,44.6,36.2,30.30,North,0,0.0,0.0,72,0.00,,,0.00,WUHU216HW,2013-01-28 16:58:00,
2013-01-28 12:03:00,44.8,36.0,30.30,North,0,0.0,0.0,71,0.00,,,0.00,WUHU216HW,2013-01-28 17:03:00,
2013-01-28 12:08:00,44.8,36.0,30.30,North,0,0.0,0.0,71,0.00,,,0.00,WUHU216HW,2013-01-28 17:08:00,
2013-01-28 12:13:00,45.0,36.2,30.29,North,0,0.0,0.0,71,0.00,,,0.00,WUHU216HW,2013-01-28 17:13:00,
2013-01-28 12:18:00,45.2,36.4,30.29,North,0,0.0,0.0,71,0.00,,,0.00,WUHU216HW,2013-01-28 17:18:00,
2013-01-28 12:23:00,45.2,36.4,30.29,North,0,0.0,0.0,71,0.00,,,0.00,WUHU216HW,2013-01-28 17:23:00,
2013-01-28 12:28:00,45.5,36.7,30.28,North,0,0.0,0.0,71,0.00,,,0.00,WUHU216HW,2013-01-28 17:28:00,
2013-01-28 12:33:00,45.7,36.9,30.27,North,0,0.0,0.0,71,0.00,,,0.00,WUHU216HW,2013-01-28 17:33:00,
2013-01-28 12:38:00,45.7,36.9,30.27,North,0,0.0,0.0,71,0.00,,,0.00,WUHU216HW,2013-01-28 17:38:00,
2013-01-28 12:43:00,45.9,37.1,30.27,North,0,0.0,0.0,71,0.00,,,0.00,WUHU216HW,2013-01-28 17:43:00,
2013-01-28 12:48:00,46.1,37.3,30.26,North,0,0.0,0.0,71,0.00,,,0.00,WUHU216HW,2013-01-28 17:48:00,
2013-01-28 12:53:00,46.3,37.1,30.26,North,0,0.0,0.0,70,0.00,,,0.00,WUHU216HW,2013-01-28 17:53:00,
2013-01-28 12:58:00,46.4,37.3,30.26,North,0,0.0,0.0,70,0.00,,,0.00,WUHU216HW,2013-01-28 17:58:00,
2013-01-28 13:03:00,46.4,37.3,30.26,North,0,0.0,0.0,70,0.00,,,0.00,WUHU216HW,2013-01-28 18:03:00,
2013-01-28 13:08:00,46.4,36.9,30.25,North,0,0.0,0.0,69,0.00,,,0.00,WUHU216HW,2013-01-28 18:08:00,
2013-01-28 13:13:00,46.6,37.0,30.25,North,0,0.0,0.0,69,0.00,,,0.00,WUHU216HW,2013-01-28 18:13:00,
2013-01-28 13:18:00,46.8,37.2,30.25,North,0,0.0,0.0,69,0.00,,,0.00,WUHU216HW,2013-01-28 18:18:00,
2013-01-28 13:23:00,46.8,37.2,30.24,North,0,0.0,0.0,69,0.00,,,0.00,WUHU216HW,2013-01-28 18:23:00,
2013-01-28 13:28:00,47.0,37.4,30.24,North,0,0.0,0.0,69,0.00,,,0.00,WUHU216HW,2013-01-28 18:28:00,
2013-01-28 13:33:00,47.0,37.4,30.24,North,0,0.0,0.0,69,0.00,,,0.00,WUHU216HW,2013-01-28 18:33:00,
2013-01-28 13:38:00,47.2,37.2,30.24,North,0,0.0,0.0,68,0.00,,,0.00,WUHU216HW,2013-01-28 18:38:00,
2013-01-28 13:43:00,47.2,37.2,30.23,North,0,0.0,0.0,68,0.00,,,0.00,WUHU216HW,2013-01-28 18:43:00,
2013-01-28 13:48:00,47.2,37.2,30.23,North,0,0.0,0.0,68,0.00,,,0.00,WUHU216HW,2013-01-28 18:48:00,
2013-01-28 13:53:00,47.2,37.2,30.23,North,0,0.0,0.0,68,0.00,,,0.00,WUHU216HW,2013-01-28 18:53:00,
2013-01-28 13:58:00,47.2,37.2,30.22,North,0,0.0,0.0,68,0.00,,,0.00,WUHU216HW,2013-01-28 18:58:00,
2013-01-28 14:03:00,47.3,37.3,30.22,North,0,0.0,0.0,68,0.00,,,0.00,WUHU216HW,2013-01-28 19:03:00,
2013-01-28 14:08:00,47.5,37.4,30.22,North,0,0.0,0.0,68,0.00,,,0.00,WUHU216HW,2013-01-28 19:08:00,
2013-01-28 14:13:00,47.5,37.4,30.22,North,0,0.0,0.0,68,0.00,,,0.00,WUHU216HW,2013-01-28 19:13:00,
2013-01-28 14:19:00,47.7,37.6,30.21,North,0,0.0,0.0,68,0.00,,,0.00,WUHU216HW,2013-01-28 19:19:00,
2013-01-28 14:24:00,47.7,37.6,30.22,North,0,0.0,0.0,68,0.00,,,0.00,WUHU216HW,2013-01-28 19:24:00,
2013-01-28 14:29:00,47.9,37.8,30.22,North,0,0.0,0.0,68,0.00,,,0.00,WUHU216HW,2013-01-28 19:29:00,
2013-01-28 14:34:00,47.9,37.8,30.22,North,0,0.0,0.0,68,0.00,,,0.00,WUHU216HW,2013-01-28 19:34:00,
2013-01-28 14:39:00,48.1,38.0,30.21,North,0,0.0,0.0,68,0.00,,,0.00,WUHU216HW,2013-01-28 19:39:00,
2013-01-28 14:44:00,48.2,38.2,30.21,North,0,0.0,0.0,68,0.00,,,0.00,WUHU216HW,2013-01-28 19:44:00,
2013-01-28 14:49:00,48.2,38.2,30.21,North,0,0.0,0.0,68,0.00,,,0.00,WUHU216HW,2013-01-28 19:49:00,
2013-01-28 14:54:00,48.6,38.5,30.20,North,0,0.0,0.0,68,0.00,,,0.00,WUHU216HW,2013-01-28 19:54:00,
2013-01-28 14:59:00,48.6,38.5,30.20,North,0,0.0,0.0,68,0.00,,,0.00,WUHU216HW,2013-01-28 19:59:00,
2013-01-28 15:04:00,48.8,38.6,30.20,North,0,0.0,0.0,68,0.00,,,0.00,WUHU216HW,2013-01-28 20:04:00,
2013-01-28 15:09:00,49.0,38.8,30.19,North,0,0.0,0.0,68,0.00,,,0.00,WUHU216HW,2013-01-28 20:09:00,
2013-01-28 15:14:00,49.1,39.0,30.19,North,0,0.0,0.0,68,0.00,,,0.00,WUHU216HW,2013-01-28 20:14:00,
2013-01-28 15:19:00,49.3,39.2,30.18,North,0,0.0,0.0,68,0.00,,,0.00,WUHU216HW,2013-01-28 20:19:00,
2013-01-28 15:24:00,49.7,39.5,30.18,North,0,0.0,0.0,68,0.00,,,0.00,WUHU216HW,2013-01-28 20:24:00,
2013-01-28 15:29:00,49.7,39.5,30.18,North,0,0.0,0.0,68,0.00,,,0.00,WUHU216HW,2013-01-28 20:29:00,
2013-01-28 15:34:00,49.9,39.7,30.18,North,0,0.0,0.0,68,0.00,,,0.00,WUHU216HW,2013-01-28 20:34:00,
2013-01-28 15:39:00,49.9,39.7,30.18,North,0,0.0,0.0,68,0.00,,,0.00,WUHU216HW,2013-01-28 20:39:00,
2013-01-28 15:44:00,50.0,40.3,30.17,North,0,0.0,0.0,69,0.00,,,0.00,WUHU216HW,2013-01-28 20:44:00,
2013-01-28 15:49:00,50.2,40.5,30.18,North,0,0.0,0.0,69,0.00,,,0.00,WUHU216HW,2013-01-28 20:49:00,
2013-01-28 15:54:00,50.4,40.7,30.17,North,0,0.0,0.0,69,0.00,,,0.00,WUHU216HW,2013-01-28 20:54:00,
2013-01-28 15:59:00,50.4,40.7,30.18,North,0,0.0,0.0,69,0.00,,,0.00,WUHU216HW,2013-01-28 20:59:00,
2013-01-28 16:04:00,50.6,40.9,30.17,North,0,0.0,0.0,69,0.00,,,0.00,WUHU216HW,2013-01-28 21:04:00,
2013-01-28 16:09:00,50.8,41.4,30.18,North,0,0.0,0.0,70,0.00,,,0.00,WUHU216HW,2013-01-28 21:09:00,
2013-01-28 16:14:00,50.8,41.4,30.18,North,0,0.0,0.0,70,0.00,,,0.00,WUHU216HW,2013-01-28 21:14:00,
2013-01-28 16:19:00,50.8,41.4,30.18,North,0,0.0,0.0,70,0.00,,,0.00,WUHU216HW,2013-01-28 21:19:00,
2013-01-28 16:24:00,50.8,41.4,30.17,North,0,0.0,0.0,70,0.00,,,0.00,WUHU216HW,2013-01-28 21:24:00,
2013-01-28 16:29:00,50.9,41.6,30.17,North,0,0.0,0.0,70,0.00,,,0.00,WUHU216HW,2013-01-28 21:29:00,
2013-01-28 16:34:00,50.9,41.6,30.16,North,0,0.0,0.0,70,0.00,,,0.00,WUHU216HW,2013-01-28 21:34:00,
2013-01-28 16:39:00,50.9,41.6,30.17,North,0,0.0,0.0,70,0.00,,,0.00,WUHU216HW,2013-01-28 21:39:00,
2013-01-28 16:44:00,50.9,41.6,30.17,North,0,0.0,0.0,70,0.00,,,0.00,WUHU216HW,2013-01-28 21:44:00,
2013-01-28 16:49:00,50.9,42.0,30.18,North,0,0.0,0.0,71,0.00,,,0.00,WUHU216HW,2013-01-28 21:49:00,
2013-01-28 16:54:00,50.9,42.0,30.18,North,0,0.0,0.0,71,0.00,,,0.00,WUHU216HW,2013-01-28 21:54:00,
2013-01-28 16:59:00,50.9,42.0,30.18,North,0,0.0,0.0,71,0.00,,,0.00,WUHU216HW,2013-01-28 21:59:00,
2013-01-28 17:04:00,50.9,42.3,30.18,North,0,0.0,0.0,72,0.00,,,0.00,WUHU216HW,2013-01-28 22:04:00,
2013-01-28 17:09:00,50.9,42.3,30.18,North,0,0.0,0.0,72,0.00,,,0.00,WUHU216HW,2013-01-28 22:09:00,
2013-01-28 17:14:00,50.9,42.3,30.18,North,0,0.0,0.0,72,0.00,,,0.00,WUHU216HW,2013-01-28 22:14:00,
2013-01-28 17:19:00,50.9,42.3,30.18,North,0,0.0,0.0,72,0.00,,,0.00,WUHU216HW,2013-01-28 22:19:00,
2013-01-28 17:24:00,50.9,42.3,30.18,North,0,0.0,0.0,72,0.00,,,0.00,WUHU216HW,2013-01-28 22:24:00,
2013-01-28 17:29:00,50.9,42.3,30.18,North,0,0.0,0.0,72,0.00,,,0.00,WUHU216HW,2013-01-28 22:29:00,
2013-01-28 17:34:00,50.9,42.3,30.18,North,0,0.0,0.0,72,0.00,,,0.00,WUHU216HW,2013-01-28 22:34:00,
2013-01-28 17:39:00,51.1,42.5,30.17,North,0,0.0,0.0,72,0.00,,,0.00,WUHU216HW,2013-01-28 22:39:00,
2013-01-28 17:44:00,51.1,42.5,30.18,North,0,0.0,0.0,72,0.00,,,0.00,WUHU216HW,2013-01-28 22:44:00,
2013-01-28 17:49:00,51.1,42.5,30.17,North,0,0.0,0.0,72,0.00,,,0.00,WUHU216HW,2013-01-28 22:49:00,
2013-01-28 17:54:00,51.1,42.5,30.17,North,0,0.0,0.0,72,0.00,,,0.00,WUHU216HW,2013-01-28 22:54:00,
2013-01-28 17:59:00,51.1,42.5,30.17,North,0,0.0,0.0,72,0.00,,,0.00,WUHU216HW,2013-01-28 22:59:00,
2013-01-28 18:04:00,51.1,42.5,30.17,North,0,0.0,0.0,72,0.00,,,0.00,WUHU216HW,2013-01-28 23:04:00,
2013-01-28 18:09:00,51.1,42.5,30.17,North,0,0.0,0.0,72,0.00,,,0.00,WUHU216HW,2013-01-28 23:09:00,
2013-01-28 18:14:00,50.9,42.3,30.17,North,0,0.0,0.0,72,0.00,,,0.00,WUHU216HW,2013-01-28 23:14:00,
2013-01-28 18:19:00,50.9,42.3,30.17,North,0,0.0,0.0,72,0.00,,,0.00,WUHU216HW,2013-01-28 23:19:00,
2013-01-28 18:24:00,50.9,42.3,30.17,North,0,0.0,0.0,72,0.00,,,0.00,WUHU216HW,2013-01-28 23:24:00,
2013-01-28 18:29:00,50.9,42.6,30.18,North,0,0.0,0.0,73,0.00,,,0.00,WUHU216HW,2013-01-28 23:29:00,
2013-01-28 18:34:00,50.9,42.6,30.18,North,0,0.0,0.0,73,0.00,,,0.00,WUHU216HW,2013-01-28 23:34:00,
2013-01-28 18:39:00,50.9,42.6,30.18,North,0,0.0,0.0,73,0.00,,,0.00,WUHU216HW,2013-01-28 23:39:00,
2013-01-28 18:44:00,50.9,42.6,30.18,North,0,0.0,0.0,73,0.00,,,0.00,WUHU216HW,2013-01-28 23:44:00,
2013-01-28 18:49:00,50.9,42.6,30.18,North,0,0.0,0.0,73,0.00,,,0.00,WUHU216HW,2013-01-28 23:49:00,
2013-01-28 18:54:00,50.9,42.6,30.18,North,0,0.0,0.0,73,0.00,,,0.00,WUHU216HW,2013-01-28 23:54:00,
2013-01-28 18:59:00,50.9,42.6,30.18,North,0,0.0,0.0,73,0.00,,,0.00,WUHU216HW,2013-01-28 23:59:00,
2013-01-28 19:04:00,50.9,42.6,30.18,North,0,0.0,0.0,73,0.00,,,0.00,WUHU216HW,2013-01-29 00:04:00,
2013-01-28 19:09:00,50.9,42.9,30.18,North,0,0.0,0.0,74,0.00,,,0.00,WUHU216HW,2013-01-29 00:09:00,
2013-01-28 19:14:00,50.9,42.9,30.18,North,0,0.0,0.0,74,0.00,,,0.00,WUHU216HW,2013-01-29 00:14:00,
2013-01-28 19:19:00,50.8,42.8,30.18,North,0,0.0,0.0,74,0.00,,,0.00,WUHU216HW,2013-01-29 00:19:00,
2013-01-28 19:24:00,50.8,42.8,30.18,North,0,0.0,0.0,74,0.00,,,0.00,WUHU216HW,2013-01-29 00:24:00,
2013-01-28 19:29:00,50.8,42.8,30.18,North,0,0.0,0.0,74,0.00,,,0.00,WUHU216HW,2013-01-29 00:29:00,
2013-01-28 19:34:00,50.8,42.8,30.18,North,0,0.0,0.0,74,0.00,,,0.00,WUHU216HW,2013-01-29 00:34:00,
2013-01-28 19:39:00,50.8,42.8,30.18,North,0,0.0,0.0,74,0.00,,,0.00,WUHU216HW,2013-01-29 00:39:00,
2013-01-28 19:44:00,50.8,42.8,30.17,North,0,0.0,0.0,74,0.00,,,0.00,WUHU216HW,2013-01-29 00:44:00,
2013-01-28 19:49:00,50.8,43.1,30.17,North,0,0.0,0.0,75,0.00,,,0.00,WUHU216HW,2013-01-29 00:49:00,
2013-01-28 19:54:00,50.8,43.1,30.17,North,0,0.0,0.0,75,0.00,,,0.00,WUHU216HW,2013-01-29 00:54:00,
2013-01-28 19:59:00,50.8,43.1,30.17,North,0,0.0,0.0,75,0.00,,,0.00,WUHU216HW,2013-01-29 00:59:00,
2013-01-28 20:04:00,50.8,43.1,30.17,North,0,0.0,0.0,75,0.00,,,0.00,WUHU216HW,2013-01-29 01:04:00,
2013-01-28 20:09:00,50.8,43.1,30.17,North,0,0.0,0.0,75,0.00,,,0.00,WUHU216HW,2013-01-29 01:09:00,
2013-01-28 20:14:00,50.8,43.1,30.17,North,0,0.0,0.0,75,0.00,,,0.00,WUHU216HW,2013-01-29 01:14:00,
2013-01-28 20:19:00,50.8,43.1,30.17,North,0,0.0,0.0,75,0.00,,,0.00,WUHU216HW,2013-01-29 01:19:00,
2013-01-28 20:24:00,50.8,43.1,30.17,North,0,0.0,0.0,75,0.00,,,0.00,WUHU216HW,2013-01-29 01:24:00,
2013-01-28 20:29:00,50.8,43.1,30.17,North,0,0.0,0.0,75,0.00,,,0.00,WUHU216HW,2013-01-29 01:29:00,
2013-01-28 20:34:00,50.8,43.1,30.17,North,0,0.0,0.0,75,0.00,,,0.00,WUHU216HW,2013-01-29 01:34:00,
2013-01-28 20:39:00,50.8,43.5,30.17,North,0,0.0,0.0,76,0.00,,,0.00,WUHU216HW,2013-01-29 01:39:00,
2013-01-28 20:44:00,50.8,43.5,30.17,North,0,0.0,0.0,76,0.00,,,0.00,WUHU216HW,2013-01-29 01:44:00,
2013-01-28 20:49:00,50.8,43.5,30.17,North,0,0.0,0.0,76,0.00,,,0.00,WUHU216HW,2013-01-29 01:49:00,
2013-01-28 20:54:00,50.8,43.5,30.17,North,0,0.0,0.0,76,0.00,,,0.00,WUHU216HW,2013-01-29 01:54:00,
2013-01-28 20:59:00,50.8,43.5,30.17,North,0,0.0,0.0,76,0.00,,,0.00,WUHU216HW,2013-01-29 01:59:00,
2013-01-28 21:04:00,50.8,43.5,30.17,North,0,0.0,0.0,76,0.00,,,0.00,WUHU216HW,2013-01-29 02:04:00,
2013-01-28 21:09:00,50.8,43.8,30.17,North,0,0.0,0.0,77,0.00,,,0.00,WUHU216HW,2013-01-29 02:09:00,
2013-01-28 21:14:00,50.8,43.8,30.17,North,0,0.0,0.0,77,0.00,,,0.00,WUHU216HW,2013-01-29 02:14:00,
2013-01-28 21:19:00,50.8,43.8,30.17,North,0,0.0,0.0,77,0.00,,,0.00,WUHU216HW,2013-01-29 02:19:00,
2013-01-28 21:24:00,50.8,43.8,30.17,North,0,0.0,0.0,77,0.00,,,0.00,WUHU216HW,2013-01-29 02:24:00,
2013-01-28 21:29:00,50.8,43.8,30.17,North,0,0.0,0.0,77,0.00,,,0.00,WUHU216HW,2013-01-29 02:29:00,
2013-01-28 21:34:00,50.8,44.1,30.17,North,0,0.0,0.0,78,0.00,,,0.00,WUHU216HW,2013-01-29 02:34:00,
2013-01-28 21:39:00,50.8,44.1,30.16,North,0,0.0,0.0,78,0.00,,,0.00,WUHU216HW,2013-01-29 02:39:00,
2013-01-28 21:44:00,50.9,44.3,30.16,North,0,0.0,0.0,78,0.00,,,0.00,WUHU216HW,2013-01-29 02:44:00,
2013-01-28 21:49:00,50.9,44.3,30.16,North,0,0.0,0.0,78,0.00,,,0.00,WUHU216HW,2013-01-29 02:49:00,
2013-01-28 21:54:00,50.9,44.3,30.16,North,0,0.0,0.0,78,0.00,,,0.00,WUHU216HW,2013-01-29 02:54:00,
2013-01-28 21:59:00,51.1,44.5,30.16,North,0,0.0,0.0,78,0.00,,,0.00,WUHU216HW,2013-01-29 02:59:00,
2013-01-28 22:04:00,51.1,44.5,30.16,North,0,0.0,0.0,78,0.00,,,0.00,WUHU216HW,2013-01-29 03:04:00,
2013-01-28 22:09:00,51.1,44.8,30.16,North,0,0.0,0.0,79,0.00,,,0.00,WUHU216HW,2013-01-29 03:09:00,
2013-01-28 22:14:00,51.1,44.8,30.16,North,0,0.0,0.0,79,0.00,,,0.00,WUHU216HW,2013-01-29 03:14:00,
2013-01-28 22:19:00,51.3,45.0,30.16,North,0,0.0,0.0,79,0.00,,,0.00,WUHU216HW,2013-01-29 03:19:00,
2013-01-28 22:24:00,51.3,45.0,30.16,North,0,0.0,0.0,79,0.00,,,0.00,WUHU216HW,2013-01-29 03:24:00,
2013-01-28 22:29:00,51.3,45.0,30.15,North,0,0.0,0.0,79,0.00,,,0.00,WUHU216HW,2013-01-29 03:29:00,
2013-01-28 22:34:00,51.1,44.8,30.16,North,0,0.0,0.0,79,0.00,,,0.00,WUHU216HW,2013-01-29 03:34:00,
2013-01-28 22:39:00,51.1,44.8,30.16,North,0,0.0,0.0,79,0.00,,,0.00,WUHU216HW,2013-01-29 03:39:00,
2013-01-28 22:44:00,50.9,44.6,30.16,North,0,0.0,0.0,79,0.00,,,0.00,WUHU216HW,2013-01-29 03:44:00,
2013-01-28 22:49:00,50.8,44.5,30.16,North,0,0.0,0.0,79,0.00,,,0.00,WUHU216HW,2013-01-29 03:49:00,
2013-01-28 22:54:00,50.8,44.5,30.16,North,0,0.0,0.0,79,0.00,,,0.00,WUHU216HW,2013-01-29 03:54:00,
2013-01-28 22:59:00,50.6,44.3,30.16,North,0,0.0,0.0,79,0.00,,,0.00,WUHU216HW,2013-01-29 03:59:00,
2013-01-28 23:04:00,50.6,44.3,30.15,North,0,0.0,0.0,79,0.00,,,0.00,WUHU216HW,2013-01-29 04:04:00,
2013-01-28 23:09:00,50.4,44.1,30.15,North,0,0.0,0.0,79,0.00,,,0.00,WUHU216HW,2013-01-29 04:09:00,
2013-01-28 23:14:00,50.2,43.9,30.15,North,0,0.0,0.0,79,0.00,,,0.00,WUHU216HW,2013-01-29 04:14:00,
2013-01-28 23:19:00,50.0,43.7,30.15,North,0,0.0,0.0,79,0.00,,,0.00,WUHU216HW,2013-01-29 04:19:00,
2013-01-28 23:24:00,49.9,43.6,30.15,North,0,0.0,0.0,79,0.00,,,0.00,WUHU216HW,2013-01-29 04:24:00,
2013-01-28 23:29:00,49.7,43.4,30.15,North,0,0.0,0.0,79,0.00,,,0.00,WUHU216HW,2013-01-29 04:29:00,
2013-01-28 23:34:00,49.5,43.6,30.15,North,0,0.0,0.0,80,0.00,,,0.00,WUHU216HW,2013-01-29 04:34:00,
2013-01-28 23:40:00,49.3,43.4,30.15,North,0,0.0,0.0,80,0.00,,,0.00,WUHU216HW,2013-01-29 04:40:00,
2013-01-28 23:45:00,49.1,43.2,30.15,North,0,0.0,0.0,80,0.00,,,0.00,WUHU216HW,2013-01-29 04:45:00,
2013-01-28 23:50:00,49.0,43.0,30.15,North,0,0.0,0.0,80,0.00,,,0.00,WUHU216HW,2013-01-29 04:50:00,
2013-01-28 23:55:00,49.0,43.0,30.15,North,0,0.0,0.0,80,0.00,,,0.00,WUHU216HW,2013-01-29 04:55:00,